createdAt,value
2023-01-17T00:02:08.755Z,2.97
2023-01-17T00:05:30.524Z,2.93
2023-01-17T00:08:50.690Z,2.93
2023-01-17T00:11:56.976Z,2.92
2023-01-17T00:15:02.996Z,2.97
2023-01-17T00:18:09.713Z,3.01
2023-01-17T00:21:30.763Z,3.05
2023-01-17T00:24:56.166Z,3.09
2023-01-17T00:27:59.041Z,3.11
2023-01-17T00:31:04.376Z,3.12
2023-01-17T00:34:06.843Z,3.14
2023-01-17T00:37:10.219Z,3.14
2023-01-17T00:40:15.843Z,3.12
2023-01-17T00:43:42.195Z,3.13
2023-01-17T00:47:03.751Z,3.09
2023-01-17T00:50:26.823Z,3.06
2023-01-17T00:53:47.830Z,3.07
2023-01-17T00:57:13.871Z,3.09
2023-01-17T01:00:37.173Z,3.11
2023-01-17T01:03:59.243Z,3.14
2023-01-17T01:07:20.383Z,3.14
2023-01-17T01:10:42.588Z,3.13
2023-01-17T01:14:06.682Z,3.11
2023-01-17T01:17:28.858Z,3.14
2023-01-17T01:20:50.102Z,3.16
2023-01-17T01:24:12.418Z,3.22
2023-01-17T01:27:33.749Z,3.27
2023-01-17T01:30:58.630Z,3.27
2023-01-17T01:34:03.996Z,3.28
2023-01-17T01:37:10.215Z,3.27
2023-01-17T01:40:16.818Z,3.28
2023-01-17T01:43:43.313Z,3.26
2023-01-17T01:46:51.480Z,3.24
2023-01-17T01:49:58.595Z,3.22
2023-01-17T01:53:09.359Z,3.21
2023-01-17T01:56:20.207Z,3.17
2023-01-17T01:59:26.708Z,3.15
2023-01-17T02:02:36.666Z,3.14
2023-01-17T02:05:44.897Z,3.10
2023-01-17T02:08:52.247Z,3.03
2023-01-17T02:11:58.751Z,2.92
2023-01-17T02:15:09.824Z,2.75
2023-01-17T02:18:45.580Z,2.58
2023-01-17T02:22:19.174Z,2.50
2023-01-17T02:26:18.872Z,2.41
2023-01-17T02:30:20.830Z,2.22
2023-01-17T02:33:40.998Z,2.06
2023-01-17T02:36:59.167Z,1.88
2023-01-17T02:40:13.344Z,1.77
2023-01-17T02:43:23.583Z,1.66
2023-01-17T02:46:28.972Z,1.50
2023-01-17T02:49:38.059Z,1.38
2023-01-17T02:53:20.387Z,1.28
2023-01-17T02:56:52.105Z,1.20
2023-01-17T03:00:14.221Z,1.13
2023-01-17T03:03:33.239Z,1.02
2023-01-17T03:06:53.122Z,0.95
2023-01-17T03:10:05.487Z,0.89
2023-01-17T03:13:11.830Z,0.84
2023-01-17T03:16:23.992Z,0.75
2023-01-17T03:19:30.291Z,0.68
2023-01-17T03:22:38.403Z,0.63
2023-01-17T03:25:44.710Z,0.57
2023-01-17T03:28:53.162Z,0.56
2023-01-17T03:31:59.446Z,0.60
2023-01-17T03:35:04.799Z,0.67
2023-01-17T03:38:13.811Z,0.71
2023-01-17T03:41:19.437Z,0.74
2023-01-17T03:44:25.776Z,0.77
2023-01-17T03:47:31.121Z,0.78
2023-01-17T03:50:37.544Z,0.76
2023-01-17T03:53:47.059Z,0.74
2023-01-17T03:56:53.587Z,0.74
2023-01-17T03:59:58.953Z,0.64
2023-01-17T04:03:05.313Z,0.55
2023-01-17T04:06:11.185Z,0.50
2023-01-17T04:09:20.257Z,0.46
2023-01-17T04:12:25.696Z,0.46
2023-01-17T04:15:31.969Z,0.33
2023-01-17T04:18:37.418Z,0.23
2023-01-17T04:21:43.841Z,0.18
2023-01-17T04:24:52.086Z,0.13
2023-01-17T04:27:58.636Z,0.12
2023-01-17T04:31:04.081Z,0.14
2023-01-17T04:34:10.447Z,0.09
2023-01-17T04:37:16.397Z,0.01
2023-01-17T04:40:26.904Z,0.03
2023-01-17T04:43:32.284Z,0.06
2023-01-17T04:46:38.775Z,0.13
2023-01-17T04:49:44.309Z,0.24
2023-01-17T04:52:50.595Z,0.33
2023-01-17T04:55:58.972Z,0.40
2023-01-17T04:59:05.186Z,0.52
2023-01-17T05:02:10.852Z,0.64
2023-01-17T05:05:17.258Z,0.74
2023-01-17T05:08:22.595Z,0.84
2023-01-17T05:11:32.188Z,0.90
2023-01-17T05:14:37.830Z,0.97
2023-01-17T05:17:44.057Z,1.02
2023-01-17T05:20:49.530Z,1.06
2023-01-17T05:23:55.759Z,1.11
2023-01-17T05:27:05.366Z,1.16
2023-01-17T05:30:13.712Z,1.22
2023-01-17T05:33:19.114Z,1.22
2023-01-17T05:36:25.310Z,1.22
2023-01-17T05:39:31.185Z,1.17
2023-01-17T05:42:40.244Z,0.65
2023-01-17T05:45:47.200Z,0.87
2023-01-17T05:48:53.394Z,0.79
2023-01-17T05:51:58.775Z,0.72
2023-01-17T05:55:06.860Z,0.76
2023-01-17T05:58:19.468Z,0.83
2023-01-17T06:01:26.105Z,0.87
2023-01-17T06:04:31.683Z,0.88
2023-01-17T06:07:38.280Z,0.83
2023-01-17T06:10:43.892Z,0.79
2023-01-17T06:13:54.201Z,0.76
2023-01-17T06:16:59.872Z,0.73
2023-01-17T06:20:07.137Z,0.72
2023-01-17T06:23:16.079Z,0.54
2023-01-17T06:26:22.507Z,0.75
2023-01-17T06:29:30.725Z,0.84
2023-01-17T06:32:36.931Z,0.93
2023-01-17T06:35:44.399Z,1.07
2023-01-17T06:38:53.852Z,1.18
2023-01-17T06:42:00.400Z,1.27
2023-01-17T06:45:11.714Z,1.36
2023-01-17T06:48:17.132Z,1.39
2023-01-17T06:51:23.562Z,1.46
2023-01-17T06:54:32.075Z,1.49
2023-01-17T06:57:38.758Z,1.51
2023-01-17T07:00:52.793Z,1.51
2023-01-17T07:03:59.402Z,1.43
2023-01-17T07:07:04.871Z,1.37
2023-01-17T07:10:11.976Z,1.29
2023-01-17T07:13:18.019Z,1.25
2023-01-17T07:16:27.031Z,1.16
2023-01-17T07:19:32.697Z,1.14
2023-01-17T07:22:39.139Z,1.12
2023-01-17T07:25:44.984Z,0.85
2023-01-17T07:28:51.492Z,1.03
2023-01-17T07:31:59.630Z,1.00
2023-01-17T07:35:05.879Z,0.98
2023-01-17T07:38:14.289Z,1.00
2023-01-17T07:41:20.515Z,1.00
2023-01-17T07:44:25.959Z,0.98
2023-01-17T07:47:35.988Z,1.01
2023-01-17T07:50:42.184Z,1.00
2023-01-17T07:53:48.497Z,1.03
2023-01-17T07:56:53.994Z,1.08
2023-01-17T08:00:00.221Z,1.11
2023-01-17T08:03:08.412Z,1.14
2023-01-17T08:06:23.333Z,1.17
2023-01-17T08:09:28.691Z,1.15
2023-01-17T08:12:36.170Z,1.17
2023-01-17T08:15:41.685Z,1.16
2023-01-17T08:18:50.777Z,1.14
2023-01-17T08:21:56.122Z,1.01
2023-01-17T08:25:02.527Z,1.06
2023-01-17T08:28:09.078Z,1.00
2023-01-17T08:31:17.716Z,1.08
2023-01-17T08:34:26.511Z,1.13
2023-01-17T08:37:32.719Z,1.20
2023-01-17T08:40:40.192Z,1.20
2023-01-17T08:43:46.446Z,1.18
2023-01-17T08:46:51.848Z,1.21
2023-01-17T08:50:01.323Z,1.28
2023-01-17T08:53:06.934Z,1.36
2023-01-17T08:56:13.242Z,1.37
2023-01-17T08:59:19.259Z,1.52
2023-01-17T09:02:25.532Z,1.68
2023-01-17T09:05:33.723Z,1.79
2023-01-17T09:08:40.854Z,1.89
2023-01-17T09:11:46.538Z,2.00
2023-01-17T09:14:52.867Z,2.06
2023-01-17T09:18:01.471Z,1.90
2023-01-17T09:21:19.462Z,2.19
2023-01-17T09:24:24.815Z,2.24
2023-01-17T09:27:30.990Z,2.28
2023-01-17T09:30:36.366Z,2.39
2023-01-17T09:33:43.362Z,2.45
2023-01-17T09:36:51.615Z,2.49
2023-01-17T09:39:57.846Z,2.53
2023-01-17T09:43:18.299Z,2.56
2023-01-17T09:46:31.618Z,2.67
2023-01-17T09:49:45.277Z,2.67
2023-01-17T09:53:01.689Z,2.71
2023-01-17T09:56:15.621Z,2.69
2023-01-17T09:59:42.825Z,2.75
2023-01-17T10:03:29.027Z,2.76
2023-01-17T10:07:07.408Z,2.80
2023-01-17T10:10:44.221Z,2.83
2023-01-17T10:14:05.871Z,2.89
2023-01-17T10:17:30.832Z,2.94
2023-01-17T10:21:01.237Z,2.89
2023-01-17T10:24:52.128Z,2.75
2023-01-17T10:28:08.439Z,2.71
2023-01-17T10:31:24.813Z,2.70
2023-01-17T10:34:40.014Z,2.39
2023-01-17T10:37:48.521Z,2.42
2023-01-17T10:41:03.328Z,2.42
2023-01-17T10:44:26.017Z,2.44
2023-01-17T10:47:40.876Z,2.35
2023-01-17T10:51:02.441Z,2.41
2023-01-17T10:54:27.411Z,2.29
2023-01-17T10:57:44.489Z,2.32
2023-01-17T11:01:03.401Z,2.24
2023-01-17T11:04:23.772Z,2.40
2023-01-17T11:07:32.308Z,2.44
2023-01-17T11:10:47.289Z,2.46
2023-01-17T11:13:57.838Z,2.57
2023-01-17T11:17:11.639Z,2.56
2023-01-17T11:20:31.064Z,2.57
2023-01-17T11:23:37.418Z,2.48
2023-01-17T11:26:52.322Z,2.48
2023-01-17T11:30:19.386Z,2.52
2023-01-17T11:33:55.797Z,2.59
2023-01-17T11:37:26.390Z,2.76
2023-01-17T11:40:39.590Z,2.84
2023-01-17T11:43:55.735Z,2.97
2023-01-17T11:47:20.809Z,3.04
2023-01-17T11:50:30.821Z,3.14
2023-01-17T11:53:42.711Z,3.17
2023-01-17T11:56:48.373Z,3.17
2023-01-17T12:00:14.792Z,3.26
2023-01-17T12:03:48.217Z,3.24
2023-01-17T12:07:36.655Z,3.36
2023-01-17T12:10:57.251Z,3.43
2023-01-17T12:14:20.273Z,3.50
2023-01-17T12:17:56.024Z,3.52
2023-01-17T12:21:20.838Z,3.55
2023-01-17T12:25:15.164Z,3.55
2023-01-17T12:28:54.257Z,3.47
2023-01-17T12:32:33.135Z,3.48
2023-01-17T12:35:50.915Z,3.54
2023-01-17T12:38:56.745Z,3.62
2023-01-17T12:42:18.839Z,3.71
2023-01-17T12:45:35.134Z,3.74
2023-01-17T12:48:42.345Z,3.80
2023-01-17T12:51:56.084Z,3.75
2023-01-17T12:55:15.140Z,3.71
2023-01-17T12:58:29.477Z,3.73
2023-01-17T13:01:39.983Z,3.79
2023-01-17T13:04:58.781Z,3.79
2023-01-17T13:08:21.704Z,3.78
2023-01-17T13:11:35.642Z,3.79
2023-01-17T13:14:44.974Z,3.86
2023-01-17T13:17:58.969Z,3.76
2023-01-17T13:21:32.767Z,3.88
2023-01-17T13:24:58.964Z,3.86
2023-01-17T13:28:32.285Z,3.91
2023-01-17T13:31:51.060Z,3.90
2023-01-17T13:35:24.148Z,3.88
2023-01-17T13:38:55.329Z,3.90
2023-01-17T13:42:24.959Z,3.96
2023-01-17T13:45:34.647Z,3.96
2023-01-17T13:48:44.072Z,3.98
2023-01-17T13:52:10.939Z,4.00
2023-01-17T13:55:48.989Z,3.92
2023-01-17T13:59:08.711Z,3.92
2023-01-17T14:02:42.385Z,3.96
2023-01-17T14:06:00.546Z,4.00
2023-01-17T14:09:18.627Z,4.06
2023-01-17T14:12:35.204Z,4.08
2023-01-17T14:15:54.084Z,4.06
2023-01-17T14:18:59.945Z,4.05
2023-01-17T14:22:29.818Z,4.05
2023-01-17T14:25:44.555Z,3.99
2023-01-17T14:28:51.837Z,3.97
2023-01-17T14:32:05.432Z,3.92
2023-01-17T14:35:26.232Z,3.87
2023-01-17T14:38:43.980Z,3.86
2023-01-17T14:41:50.394Z,3.87
2023-01-17T14:45:03.988Z,3.89
2023-01-17T14:48:21.041Z,3.89
2023-01-17T14:51:26.523Z,3.83
2023-01-17T14:54:36.988Z,3.80
2023-01-17T14:57:43.084Z,3.83
2023-01-17T15:00:52.319Z,3.83
2023-01-17T15:03:59.562Z,3.80
2023-01-17T15:07:06.572Z,3.79
2023-01-17T15:10:21.902Z,3.75
2023-01-17T15:13:44.701Z,3.71
2023-01-17T15:16:52.241Z,3.70
2023-01-17T15:20:06.502Z,3.66
2023-01-17T15:23:23.328Z,3.63
2023-01-17T15:26:38.195Z,3.63
2023-01-17T15:29:45.312Z,3.60
2023-01-17T15:32:53.189Z,3.55
2023-01-17T15:36:04.666Z,3.51
2023-01-17T15:39:25.060Z,3.48
2023-01-17T15:42:37.231Z,3.46
2023-01-17T15:45:43.740Z,3.44
2023-01-17T15:48:49.212Z,3.41
2023-01-17T15:51:58.883Z,3.35
2023-01-17T15:55:17.105Z,3.30
2023-01-17T15:58:31.670Z,3.23
2023-01-17T16:01:37.332Z,3.15
2023-01-17T16:04:43.904Z,3.13
2023-01-17T16:07:49.295Z,3.08
2023-01-17T16:11:02.231Z,2.99
2023-01-17T16:14:10.841Z,2.92
2023-01-17T16:17:21.444Z,2.87
2023-01-17T16:20:33.913Z,2.82
2023-01-17T16:23:40.166Z,2.78
2023-01-17T16:26:45.893Z,2.72
2023-01-17T16:29:56.534Z,2.67
2023-01-17T16:33:03.763Z,2.64
2023-01-17T16:36:15.318Z,2.58
2023-01-17T16:39:20.866Z,2.54
2023-01-17T16:42:28.564Z,2.55
2023-01-17T16:45:44.184Z,2.56
2023-01-17T16:48:50.462Z,2.56
2023-01-17T16:51:55.783Z,2.54
2023-01-17T16:55:02.192Z,2.54
2023-01-17T16:58:07.977Z,2.53
2023-01-17T17:01:22.900Z,2.51
2023-01-17T17:04:28.455Z,2.47
2023-01-17T17:07:35.318Z,2.44
2023-01-17T17:10:40.825Z,2.43
2023-01-17T17:13:50.199Z,2.43
2023-01-17T17:17:02.754Z,2.42
2023-01-17T17:20:12.937Z,2.43
2023-01-17T17:23:18.413Z,2.42
2023-01-17T17:26:25.196Z,2.36
2023-01-17T17:29:30.826Z,2.27
2023-01-17T17:32:39.819Z,2.21
2023-01-17T17:35:45.247Z,2.16
2023-01-17T17:38:53.798Z,2.11
2023-01-17T17:42:00.127Z,2.11
2023-01-17T17:45:06.798Z,2.11
2023-01-17T17:48:15.000Z,2.09
2023-01-17T17:51:27.857Z,2.09
2023-01-17T17:54:33.716Z,2.10
2023-01-17T17:57:40.025Z,2.12
2023-01-17T18:00:45.498Z,2.16
2023-01-17T18:03:55.567Z,2.14
2023-01-17T18:07:01.467Z,2.15
2023-01-17T18:10:09.783Z,2.11
2023-01-17T18:13:15.206Z,2.15
2023-01-17T18:16:25.794Z,2.15
2023-01-17T18:19:34.077Z,2.15
2023-01-17T18:22:41.008Z,2.13
2023-01-17T18:25:46.665Z,2.10
2023-01-17T18:28:54.970Z,2.10
2023-01-17T18:32:00.427Z,2.13
2023-01-17T18:35:10.550Z,2.15
2023-01-17T18:38:15.990Z,2.19
2023-01-17T18:41:26.230Z,2.23
2023-01-17T18:44:32.019Z,2.25
2023-01-17T18:47:38.974Z,2.27
2023-01-17T18:50:47.354Z,2.31
2023-01-17T18:53:54.247Z,2.33
2023-01-17T18:57:00.032Z,2.35
2023-01-17T19:00:07.745Z,2.36
2023-01-17T19:03:13.129Z,2.37
2023-01-17T19:06:26.881Z,2.39
2023-01-17T19:09:32.380Z,2.41
2023-01-17T19:12:40.868Z,2.41
2023-01-17T19:15:46.450Z,2.40
2023-01-17T19:18:52.800Z,2.40
2023-01-17T19:22:01.044Z,2.32
2023-01-17T19:25:08.704Z,2.23
2023-01-17T19:28:14.443Z,2.14
2023-01-17T19:31:23.399Z,2.07
2023-01-17T19:34:32.648Z,1.98
2023-01-17T19:38:00.280Z,1.90
2023-01-17T19:41:23.191Z,1.81
2023-01-17T19:44:30.108Z,1.83
2023-01-17T19:47:35.524Z,1.90
2023-01-17T19:50:41.949Z,1.95
2023-01-17T19:53:50.329Z,1.98
2023-01-17T19:57:04.378Z,2.01
2023-01-17T20:00:18.792Z,2.03
2023-01-17T20:03:37.357Z,2.06
2023-01-17T20:06:42.941Z,2.04
2023-01-17T20:09:54.275Z,1.98
2023-01-17T20:13:09.263Z,1.92
2023-01-17T20:16:30.457Z,1.80
2023-01-17T20:19:38.844Z,1.72
2023-01-17T20:23:01.391Z,1.72
2023-01-17T20:26:14.731Z,1.73
2023-01-17T20:29:25.200Z,1.78
2023-01-17T20:32:43.570Z,1.82
2023-01-17T20:36:04.887Z,1.91
2023-01-17T20:39:20.186Z,1.93
2023-01-17T20:42:29.315Z,2.00
2023-01-17T20:45:34.763Z,2.07
2023-01-17T20:48:47.960Z,2.11
2023-01-17T20:51:53.588Z,2.18
2023-01-17T20:54:59.964Z,2.20
2023-01-17T20:58:08.281Z,2.20
2023-01-17T21:01:21.361Z,2.25
2023-01-17T21:04:29.213Z,2.22
2023-01-17T21:07:35.745Z,2.23
2023-01-17T21:10:41.173Z,2.29
2023-01-17T21:13:51.672Z,2.27
2023-01-17T21:16:57.676Z,2.22
2023-01-17T21:20:06.884Z,2.18
2023-01-17T21:23:18.121Z,2.12
2023-01-17T21:26:28.029Z,2.14
2023-01-17T21:29:36.875Z,2.16
2023-01-17T21:32:43.167Z,2.21
2023-01-17T21:35:49.107Z,2.25
2023-01-17T21:38:58.698Z,1.98
2023-01-17T21:42:04.197Z,2.22
2023-01-17T21:45:14.473Z,2.25
2023-01-17T21:48:19.992Z,2.26
2023-01-17T21:51:47.171Z,2.21
2023-01-17T21:55:08.387Z,2.20
2023-01-17T21:58:47.867Z,2.19
2023-01-17T22:01:56.096Z,2.22
2023-01-17T22:05:02.514Z,2.25
2023-01-17T22:08:15.507Z,2.27
2023-01-17T22:11:25.522Z,2.30
2023-01-17T22:14:30.916Z,2.34
2023-01-17T22:17:41.224Z,2.30
2023-01-17T22:20:46.683Z,2.33
2023-01-17T22:23:56.641Z,2.30
2023-01-17T22:27:02.091Z,2.30
2023-01-17T22:30:13.145Z,2.30
2023-01-17T22:33:21.324Z,2.25
2023-01-17T22:36:29.882Z,2.23
2023-01-17T22:39:35.360Z,2.20
2023-01-17T22:42:42.219Z,2.15
2023-01-17T22:45:47.849Z,2.10
2023-01-17T22:48:59.496Z,2.05
2023-01-17T22:52:04.879Z,2.05
2023-01-17T22:55:13.218Z,2.12
2023-01-17T22:58:18.658Z,2.21
2023-01-17T23:01:28.207Z,2.28
2023-01-17T23:04:36.484Z,2.34
2023-01-17T23:07:46.626Z,2.40
2023-01-17T23:11:07.703Z,2.44
2023-01-17T23:14:20.832Z,2.52
2023-01-17T23:17:45.417Z,2.60
2023-01-17T23:20:54.507Z,2.63
2023-01-17T23:23:59.919Z,2.65
2023-01-17T23:27:21.971Z,2.66
2023-01-17T23:30:34.763Z,2.69
2023-01-17T23:33:41.055Z,2.71
2023-01-17T23:36:49.314Z,2.76
2023-01-17T23:39:55.578Z,2.76
2023-01-17T23:43:17.119Z,2.76
2023-01-17T23:46:24.283Z,2.79
2023-01-17T23:49:31.566Z,2.82
2023-01-17T23:52:40.859Z,2.85
2023-01-17T23:55:48.271Z,2.82
2023-01-17T23:58:54.539Z,2.76
